Neptune Pioneer — 3EKH6 — position and weather

sailwx.info

Track history (hours):
 
Tides and Currents Weather Stations Pressure Air Temp Water Temp Dewpoint Dewpoint Depression Visibility Wind Speed Wind Dir Waves Ship Positions

Neptune Pioneer

Last reported at 2016-Aug-21 23:06 UTC. Time now 2016-Sep-29 13:38 UTC.
Position N 32°57' W 017°21'.
Warning: this ship's position is 38 days out of date.

Length 190 m; draft 12.5 m.

Type: Cargo ship. MMSI: 372723000.

Date/timePositionNaut miles runAvg speedWind from/ knotsBaromVisibWave heightAir tempDewpointWater temp
2016-Aug-21 23:06N 32°57' W 017°21'712.1
2016-Aug-21 22:33N 33°03' W 017°18'4912.2
2016-Aug-21 18:33N 33°45' W 016°49'2512.3
2016-Aug-21 16:32N 34°07' W 016°35'  
2016-Aug-17 21:32N 49°35' W 004°03'1111.8
2016-Aug-17 20:33N 49°41' W 003°48'1110.9
2016-Aug-17 19:33N 49°47' W 003°33'10 9.9
2016-Aug-17 18:33N 49°51' W 003°20'9 9.5
2016-Aug-17 17:33N 49°57' W 003°08'10 9.8
2016-Aug-17 16:33N 50°01' W 002°54'1111.0
2016-Aug-17 15:33N 50°04' W 002°37'1312.6
2016-Aug-17 14:33N 50°07' W 002°18'1414.1
2016-Aug-17 13:33N 50°11' W 001°57'1514.6
2016-Aug-17 12:33N 50°15' W 001°35'1414.1
2016-Aug-17 11:33N 50°18' W 001°14'1312.5
2016-Aug-17 10:33N 50°22' W 000°55'1110.5
2016-Aug-17 09:33N 50°24' W 000°39'10 9.6
2016-Aug-17 08:33N 50°27' W 000°24'9 9.5
2016-Aug-17 07:33N 50°29' W 000°10'10 9.8
2016-Aug-17 06:33N 50°32' E 000°05'1110.6
2016-Aug-17 05:33N 50°35' E 000°21'1311.7
2016-Aug-17 04:27N 50°40' E 000°40'1112.7
2016-Aug-17 03:33N 50°47' E 000°54'1212.3
2016-Aug-17 02:33N 50°54' E 001°09'1111.3
2016-Aug-17 01:33N 51°02' E 001°23'10 9.7
2016-Aug-17 00:33N 51°08' E 001°34'9 8.8
2016-Aug-16 23:33N 51°14' E 001°45'9 9.3
2016-Aug-16 22:33N 51°22' E 001°53'1110.8
2016-Aug-16 21:33N 51°30' E 002°03'1212.2
2016-Aug-16 20:33N 51°40' E 002°16'1412.9
2016-Aug-16 19:29N 51°51' E 002°29'1212.6
2016-Aug-16 18:33N 52°02' E 002°37'1512.2
2016-Aug-16 17:21N 52°16' E 002°41'911.5
2016-Aug-16 16:33N 52°24' E 002°48'1210.8
2016-Aug-16 15:23N 52°35' E 002°57'910.3
2016-Aug-16 14:33N 52°43' E 003°05'27111.2
2016-Aug-15 14:18N 56°31' E 007°16'1011.1
2016-Aug-15 13:25N 56°39' E 007°25'1011.5
2016-Aug-15 12:33N 56°48' E 007°35'1212.2
2016-Aug-15 11:33N 56°58' E 007°48'6411.8
2016-Aug-15 06:09N 57°38' E 009°19'1811.5
2016-Aug-15 04:33N 57°47' E 009°48'1111.0
2016-Aug-15 03:33N 57°50' E 010°08'1111.1
2016-Aug-15 02:33N 57°50' E 010°29'1110.8
2016-Aug-15 01:33N 57°47' E 010°48'1111.2
2016-Aug-15 00:33N 57°40' E 011°05'1111.0
2016-Aug-14 23:33N 57°32' E 011°19'1111.4
2016-Aug-14 22:33N 57°23' E 011°30'1211.8
2016-Aug-14 21:33N 57°11' E 011°37'1211.7
2016-Aug-14 20:33N 57°00' E 011°44'1111.4
2016-Aug-14 19:33N 56°50' E 011°51'1010.4
2016-Aug-14 18:33N 56°39' E 011°48'8210.1
2016-Aug-14 10:23N 55°21' E 011°02'810.2
2016-Aug-14 09:33N 55°13' E 011°06'10 9.8
2016-Aug-14 08:33N 55°03' E 010°60'10 9.8
2016-Aug-14 07:33N 54°55' E 010°52'1010.4
2016-Aug-14 06:33N 54°45' E 010°47'17 8.6
2016-Aug-14 04:33N 54°36' E 011°13'1111.0
2016-Aug-14 03:33N 54°30' E 011°30'1111.0
2016-Aug-14 02:33N 54°26' E 011°47'1111.0
2016-Aug-14 01:33N 54°26' E 012°06'10 9.6
2016-Aug-14 00:33N 54°34' E 012°15'1010.2
2016-Aug-13 23:33N 54°41' E 012°28'4511.3
2016-Aug-13 19:33N 54°60' E 013°39'1111.4
2016-Aug-13 18:33N 55°03' E 013°58'1111.4
2016-Aug-13 17:33N 55°11' E 014°13'1211.8
2016-Aug-13 16:33N 55°20' E 014°26'1211.6
2016-Aug-13 15:33N 55°28' E 014°41'1211.7
2016-Aug-13 14:33N 55°33' E 014°60'1211.6
2016-Aug-13 13:33N 55°37' E 015°18'1211.5
2016-Aug-13 12:32N 55°42' E 015°38'32810.9
2016-Aug-12 06:23N 59°33' E 022°51'1011.3
2016-Aug-12 05:33N 59°36' E 023°09'1111.3
2016-Aug-12 04:33N 59°39' E 023°30'1211.8
2016-Aug-12 03:33N 59°42' E 023°53'1211.8
2016-Aug-12 02:30N 59°45' E 024°17'  
Track history (hours):
 
Tides and Currents Weather Stations Pressure Air Temp Water Temp Dewpoint Dewpoint Depression Visibility Wind Speed Wind Dir Waves Ship Positions

Neptune Pioneer

Last reported at 2016-Aug-21 23:06 UTC. Time now 2016-Sep-29 13:38 UTC.
Position N 32°57' W 017°21'.
Warning: this ship's position is 38 days out of date.

Length 190 m; draft 12.5 m.

Type: Cargo ship. MMSI: 372723000.

Date/timePositionNaut miles runAvg speedWind from/ knotsBaromVisibWave heightAir tempDewpointWater temp
2016-Aug-21 23:06N 32°57' W 017°21'712.1
2016-Aug-21 22:33N 33°03' W 017°18'4912.2
2016-Aug-21 18:33N 33°45' W 016°49'2512.3
2016-Aug-21 16:32N 34°07' W 016°35'  
2016-Aug-17 21:32N 49°35' W 004°03'1111.8
2016-Aug-17 20:33N 49°41' W 003°48'1110.9
2016-Aug-17 19:33N 49°47' W 003°33'10 9.9
2016-Aug-17 18:33N 49°51' W 003°20'9 9.5
2016-Aug-17 17:33N 49°57' W 003°08'10 9.8
2016-Aug-17 16:33N 50°01' W 002°54'1111.0
2016-Aug-17 15:33N 50°04' W 002°37'1312.6
2016-Aug-17 14:33N 50°07' W 002°18'1414.1
2016-Aug-17 13:33N 50°11' W 001°57'1514.6
2016-Aug-17 12:33N 50°15' W 001°35'1414.1
2016-Aug-17 11:33N 50°18' W 001°14'1312.5
2016-Aug-17 10:33N 50°22' W 000°55'1110.5
2016-Aug-17 09:33N 50°24' W 000°39'10 9.6
2016-Aug-17 08:33N 50°27' W 000°24'9 9.5
2016-Aug-17 07:33N 50°29' W 000°10'10 9.8
2016-Aug-17 06:33N 50°32' E 000°05'1110.6
2016-Aug-17 05:33N 50°35' E 000°21'1311.7
2016-Aug-17 04:27N 50°40' E 000°40'1112.7
2016-Aug-17 03:33N 50°47' E 000°54'1212.3
2016-Aug-17 02:33N 50°54' E 001°09'1111.3
2016-Aug-17 01:33N 51°02' E 001°23'10 9.7
2016-Aug-17 00:33N 51°08' E 001°34'9 8.8
2016-Aug-16 23:33N 51°14' E 001°45'9 9.3
2016-Aug-16 22:33N 51°22' E 001°53'1110.8
2016-Aug-16 21:33N 51°30' E 002°03'1212.2
2016-Aug-16 20:33N 51°40' E 002°16'1412.9
2016-Aug-16 19:29N 51°51' E 002°29'1212.6
2016-Aug-16 18:33N 52°02' E 002°37'1512.2
2016-Aug-16 17:21N 52°16' E 002°41'911.5
2016-Aug-16 16:33N 52°24' E 002°48'1210.8
2016-Aug-16 15:23N 52°35' E 002°57'910.3
2016-Aug-16 14:33N 52°43' E 003°05'27111.2
2016-Aug-15 14:18N 56°31' E 007°16'1011.1
2016-Aug-15 13:25N 56°39' E 007°25'1011.5
2016-Aug-15 12:33N 56°48' E 007°35'1212.2
2016-Aug-15 11:33N 56°58' E 007°48'6411.8
2016-Aug-15 06:09N 57°38' E 009°19'1811.5
2016-Aug-15 04:33N 57°47' E 009°48'1111.0
2016-Aug-15 03:33N 57°50' E 010°08'1111.1
2016-Aug-15 02:33N 57°50' E 010°29'1110.8
2016-Aug-15 01:33N 57°47' E 010°48'1111.2
2016-Aug-15 00:33N 57°40' E 011°05'1111.0
2016-Aug-14 23:33N 57°32' E 011°19'1111.4
2016-Aug-14 22:33N 57°23' E 011°30'1211.8
2016-Aug-14 21:33N 57°11' E 011°37'1211.7
2016-Aug-14 20:33N 57°00' E 011°44'1111.4
2016-Aug-14 19:33N 56°50' E 011°51'1010.4
2016-Aug-14 18:33N 56°39' E 011°48'8210.1
2016-Aug-14 10:23N 55°21' E 011°02'810.2
2016-Aug-14 09:33N 55°13' E 011°06'10 9.8
2016-Aug-14 08:33N 55°03' E 010°60'10 9.8
2016-Aug-14 07:33N 54°55' E 010°52'1010.4
2016-Aug-14 06:33N 54°45' E 010°47'17 8.6
2016-Aug-14 04:33N 54°36' E 011°13'1111.0
2016-Aug-14 03:33N 54°30' E 011°30'1111.0
2016-Aug-14 02:33N 54°26' E 011°47'1111.0
2016-Aug-14 01:33N 54°26' E 012°06'10 9.6
2016-Aug-14 00:33N 54°34' E 012°15'1010.2
2016-Aug-13 23:33N 54°41' E 012°28'4511.3
2016-Aug-13 19:33N 54°60' E 013°39'1111.4
2016-Aug-13 18:33N 55°03' E 013°58'1111.4
2016-Aug-13 17:33N 55°11' E 014°13'1211.8
2016-Aug-13 16:33N 55°20' E 014°26'1211.6
2016-Aug-13 15:33N 55°28' E 014°41'1211.7
2016-Aug-13 14:33N 55°33' E 014°60'1211.6
2016-Aug-13 13:33N 55°37' E 015°18'1211.5
2016-Aug-13 12:32N 55°42' E 015°38'32810.9
2016-Aug-12 06:23N 59°33' E 022°51'1011.3
2016-Aug-12 05:33N 59°36' E 023°09'1111.3
2016-Aug-12 04:33N 59°39' E 023°30'1211.8
2016-Aug-12 03:33N 59°42' E 023°53'1211.8
2016-Aug-12 02:30N 59°45' E 024°17'  

Dump ship's entire track history